M I D A S
Marine Information and Data Acquisition System
Tripno 1254 of the Zeeleeuw from 2007-01-08 07:48:13 to 2007-01-08 10:38:09
Back to CruiseResearch ActivitiesStationsMapUnderway DataData graphs

EquipmentUnitsComment
TimeDGPSUTC
LatitudeDGPSDM.mWGS84
LongitudeDGPSDM.mWGS84
HeadingGyrodeg 
SOGDGPSknotsSpeed over ground
COGDGPSdegCourse over ground
DepthEcho soundermeters200 kHz
Missing or incorrect values are displayed as -999
Navigation data collected by the RV Zeeleeuw from 2007-01-08 07:44:18 to 2007-01-08 10:48:54
Time Latitude Longitude Heading SOG COG Depth
2007-01-08 07:45:24 51°13.6 2°56.094 125.6 0.2 134 6.8
2007-01-08 07:46:24 51°13.599 2°56.094 127 -999 110 6.7
2007-01-08 07:47:24 51°13.599 2°56.095 126.2 -999 294 6.8
2007-01-08 07:48:24 51°13.6 2°56.095 125.1 -999 141 6.8
2007-01-08 07:49:24 51°13.598 2°56.091 113.4 0.6 286 7
2007-01-08 07:50:24 51°13.61 2°56.043 118.9 3 293 -999
2007-01-08 07:51:24 51°13.639 2°55.96 127.5 4 303 -999
2007-01-08 07:52:24 51°13.678 2°55.875 128.5 3.8 306 -999
2007-01-08 07:53:24 51°13.713 2°55.782 117.9 4.2 298 -999
2007-01-08 07:54:24 51°13.731 2°55.71 102.2 1 294 10.8
2007-01-08 07:55:23 51°13.74 2°55.726 57.3 0.7 41 9.8
2007-01-08 07:56:24 51°13.73 2°55.714 36.7 1 216 -999
2007-01-08 07:57:23 51°13.746 2°55.71 354.2 2.6 341 4.7
2007-01-08 07:58:24 51°13.809 2°55.652 334.5 5.6 331 10.4
2007-01-08 07:59:23 51°13.905 2°55.58 339.5 6.9 336 10.5
2007-01-08 08:00:24 51°14.015 2°55.504 341 7.2 337 10.3
2007-01-08 08:01:24 51°14.122 2°55.427 338.9 7.1 334 10.4
2007-01-08 08:02:24 51°14.224 2°55.322 326.3 7.9 320 10.4
2007-01-08 08:03:24 51°14.323 2°55.147 314.3 9.4 310 10.5
2007-01-08 08:04:23 51°14.411 2°54.928 299.4 10.5 290 10.1
2007-01-08 08:05:24 51°14.433 2°54.634 276.3 12 270 10.3
2007-01-08 08:06:23 51°14.364 2°54.317 243.7 13.5 241 8.6
2007-01-08 08:07:24 51°14.256 2°53.994 245.8 13.7 242 8.5
2007-01-08 08:08:23 51°14.15 2°53.676 246.5 13.8 241 8.4
2007-01-08 08:09:23 51°14.037 2°53.353 243.4 14 236 8.8
2007-01-08 08:10:23 51°13.915 2°53.036 243.1 14.1 239 9.3
2007-01-08 08:11:23 51°13.793 2°52.718 243.1 14.1 239 9.3
2007-01-08 08:12:24 51°13.668 2°52.394 242.4 14.1 239 9.5
2007-01-08 08:13:23 51°13.548 2°52.08 243.1 14.1 239 9.5
2007-01-08 08:14:24 51°13.427 2°51.754 243.7 14 240 9.7
2007-01-08 08:15:23 51°13.309 2°51.44 243.2 14 240 9.7
2007-01-08 08:16:24 51°13.186 2°51.116 242.9 14.1 239 9.7
2007-01-08 08:17:24 51°13.065 2°50.793 243.1 14.2 239 9.8
2007-01-08 08:18:24 51°12.948 2°50.466 245.5 14.3 241 9.9
2007-01-08 08:19:24 51°12.833 2°50.136 245.2 14.3 241 9.8
2007-01-08 08:20:24 51°12.72 2°49.806 245.2 14.3 242 10
2007-01-08 08:21:24 51°12.607 2°49.473 245.3 14.2 242 10
2007-01-08 08:22:24 51°12.493 2°49.144 245.1 14.1 241 10.2
2007-01-08 08:23:24 51°12.381 2°48.813 245.3 14.1 241 10.4
2007-01-08 08:24:23 51°12.27 2°48.487 245.5 14.2 241 10.3
2007-01-08 08:25:24 51°12.155 2°48.15 244.7 14.2 242 10.2
2007-01-08 08:26:24 51°12.042 2°47.817 245.7 14.3 241 10.3
2007-01-08 08:27:23 51°11.931 2°47.49 244.6 14.2 241 10.1
2007-01-08 08:28:24 51°11.817 2°47.152 244.5 14.3 242 10.1
2007-01-08 08:29:23 51°11.707 2°46.824 245.2 14.3 242 9.9
2007-01-08 08:30:24 51°11.593 2°46.484 245.7 14.4 243 9.9
2007-01-08 08:31:23 51°11.489 2°46.149 247.5 14.2 244 9.7
2007-01-08 08:32:24 51°11.384 2°45.803 247.4 14.2 245 9.6
2007-01-08 08:33:23 51°11.281 2°45.468 247.1 14.2 244 9.3
2007-01-08 08:34:24 51°11.176 2°45.123 247.4 14.2 244 9.1
2007-01-08 08:35:24 51°11.072 2°44.783 246.9 14.3 243 8.8
2007-01-08 08:36:24 51°10.971 2°44.442 247.8 14.2 244 8.8
2007-01-08 08:37:24 51°10.868 2°44.102 246.9 14.2 245 8.6
2007-01-08 08:38:24 51°10.766 2°43.762 246.6 14.1 243 8.4
2007-01-08 08:39:24 51°10.665 2°43.423 247.9 14.1 245 8.2
2007-01-08 08:40:24 51°10.565 2°43.086 247.4 14.1 246 7.9
2007-01-08 08:41:24 51°10.464 2°42.752 245.8 14 244 7.7
2007-01-08 08:42:24 51°10.366 2°42.415 246.3 14.1 243 7.7
2007-01-08 08:43:24 51°10.269 2°42.081 247.6 14 246 7.7
2007-01-08 08:44:24 51°10.174 2°41.744 247.5 13.9 246 7.7
2007-01-08 08:45:24 51°10.089 2°41.4 251.2 14 247 7.7
2007-01-08 08:46:24 51°9.995 2°41.061 249.3 14.1 248 7.9
2007-01-08 08:47:24 51°9.912 2°40.713 250.9 14 248 8
2007-01-08 08:48:24 51°9.827 2°40.366 252.4 14 250 8
2007-01-08 08:49:24 51°9.738 2°40.02 250.2 14.1 249 8.2
2007-01-08 08:50:24 51°9.651 2°39.671 251.1 14.2 248 8.3
2007-01-08 08:51:24 51°9.562 2°39.322 251.1 14.2 249 8.3
2007-01-08 08:52:24 51°9.478 2°38.971 251.8 14.3 249 8.4
2007-01-08 08:53:24 51°9.39 2°38.621 251.2 14.2 249 8.6
2007-01-08 08:54:24 51°9.307 2°38.268 251.1 14.2 250 8.7
2007-01-08 08:55:24 51°9.223 2°37.916 252 14.2 249 8.5
2007-01-08 08:56:24 51°9.139 2°37.569 252 13.2 250 8.4
2007-01-08 08:57:24 51°9.1 2°37.322 275.8 6.5 274 8.9
2007-01-08 08:58:24 51°9.116 2°37.206 302.6 3.1 290 9.1
2007-01-08 08:59:24 51°9.112 2°37.186 336.2 0.7 182 4.9
2007-01-08 09:00:24 51°9.136 2°37.179 15.4 2.6 4 9.1
2007-01-08 09:01:24 51°9.16 2°37.176 19 0.6 248 9.4
2007-01-08 09:02:24 51°9.156 2°37.169 28.3 0.4 233 9.5
2007-01-08 09:03:24 51°9.151 2°37.163 29 0.3 227 9.3
2007-01-08 09:04:24 51°9.147 2°37.156 27.2 0.5 230 9.2
2007-01-08 09:05:24 51°9.14 2°37.149 27.1 0.5 219 9.4
2007-01-08 09:06:24 51°9.134 2°37.141 27.9 0.4 215 9.2
2007-01-08 09:07:24 51°9.128 2°37.135 28.3 0.5 220 9.2
2007-01-08 09:08:24 51°9.122 2°37.127 26.8 0.5 214 9.2
2007-01-08 09:09:24 51°9.117 2°37.121 27.5 0.4 213 9.2
2007-01-08 09:10:24 51°9.111 2°37.114 26 0.5 225 9.1
2007-01-08 09:11:24 51°9.105 2°37.108 24.9 0.4 214 9
2007-01-08 09:12:24 51°9.1 2°37.102 27.6 0.4 198 9
2007-01-08 09:13:24 51°9.097 2°37.097 28.1 0.8 21 8.9
2007-01-08 09:14:24 51°9.142 2°37.126 35.4 4.1 29 9.2
2007-01-08 09:15:24 51°9.175 2°37.17 49.8 0.4 39 9.6
2007-01-08 09:16:23 51°9.179 2°37.172 35 0.1 353 9.6
2007-01-08 09:17:24 51°9.181 2°37.166 24.5 0.3 295 9.7
2007-01-08 09:18:24 51°9.182 2°37.158 17.6 0.4 257 9.6
2007-01-08 09:19:24 51°9.178 2°37.149 18 0.4 222 9.7
2007-01-08 09:20:24 51°9.174 2°37.141 17.2 0.5 244 9.6
2007-01-08 09:21:24 51°9.17 2°37.134 16.8 0.3 217 9.6
2007-01-08 09:22:24 51°9.165 2°37.128 20.3 0.4 221 9.6
2007-01-08 09:23:24 51°9.16 2°37.121 20.5 0.4 210 9.5
2007-01-08 09:24:25 51°9.155 2°37.116 25.1 0.3 226 9.4
2007-01-08 09:25:25 51°9.152 2°37.11 23.9 0.3 230 9.4
2007-01-08 09:26:23 51°9.148 2°37.103 23 0.4 243 9.3
2007-01-08 09:27:24 51°9.145 2°37.096 19.8 0.4 241 9.3
2007-01-08 09:28:24 51°9.142 2°37.088 20 0.4 234 9.3
2007-01-08 09:29:24 51°9.139 2°37.082 18.1 0.3 178 9.4
2007-01-08 09:30:24 51°9.155 2°37.089 39.2 2 35 9.4
2007-01-08 09:31:24 51°9.166 2°37.147 93.5 2.5 104 9.5
2007-01-08 09:32:24 51°9.159 2°37.154 103 0.6 223 9.4
2007-01-08 09:33:24 51°9.15 2°37.149 116.8 0.6 185 9.3
2007-01-08 09:34:24 51°9.139 2°37.149 131.3 0.8 178 9.2
2007-01-08 09:35:24 51°9.125 2°37.149 143.2 0.9 184 9
2007-01-08 09:36:24 51°9.107 2°37.152 148 1.9 160 8.8
2007-01-08 09:37:24 51°9.095 2°37.249 77 6.5 63 8.6
2007-01-08 09:38:24 51°9.168 2°37.463 68.7 11.1 66 8.8
2007-01-08 09:39:24 51°9.258 2°37.747 67.5 12.5 57 8.8
2007-01-08 09:40:24 51°9.359 2°38.038 66.8 12.6 60 9
2007-01-08 09:41:24 51°9.456 2°38.334 68.6 12.6 62 9.2
2007-01-08 09:42:24 51°9.552 2°38.632 66.5 12.6 66 9.3
2007-01-08 09:43:24 51°9.65 2°38.928 67.5 12.6 64 9.4
2007-01-08 09:44:24 51°9.75 2°39.222 66.6 12.5 62 9.2
2007-01-08 09:45:24 51°9.845 2°39.519 67.5 12.6 66 9.3
2007-01-08 09:46:24 51°9.941 2°39.816 69.1 12.7 58 9.3
2007-01-08 09:47:24 51°10.035 2°40.112 66.9 12.4 63 9.4
2007-01-08 09:48:24 51°10.133 2°40.404 67.9 12.2 60 9.7
2007-01-08 09:49:24 51°10.228 2°40.697 68.9 12.6 59 9.8
2007-01-08 09:50:24 51°10.326 2°40.988 67.5 12.3 62 10
2007-01-08 09:51:24 51°10.422 2°41.279 66.7 12.3 65 10.1
2007-01-08 09:52:24 51°10.516 2°41.572 67.1 12.4 61 10.2
2007-01-08 09:53:24 51°10.613 2°41.864 67.5 12.6 62 10.3
2007-01-08 09:54:24 51°10.709 2°42.161 66.1 12.3 63 10.5
2007-01-08 09:55:24 51°10.801 2°42.455 68 12.4 62 10.7
2007-01-08 09:56:24 51°10.893 2°42.751 66.7 12.5 65 10.9
2007-01-08 09:57:24 51°10.987 2°43.046 65.7 12.4 68 11
2007-01-08 09:58:24 51°11.082 2°43.339 67.2 12.5 61 11.2
2007-01-08 09:59:24 51°11.174 2°43.632 68.9 12.4 62 11.2
2007-01-08 10:00:24 51°11.262 2°43.928 70.4 12.3 63 11.4
2007-01-08 10:01:24 51°11.34 2°44.23 70.3 12.3 70 11.4
2007-01-08 10:02:24 51°11.419 2°44.534 72.3 12.6 66 11.4
2007-01-08 10:03:24 51°11.495 2°44.837 72.6 12.1 67 11.4
2007-01-08 10:04:24 51°11.566 2°45.137 73.8 12.2 63 11.6
2007-01-08 10:05:24 51°11.635 2°45.441 72.9 12.3 67 11.7
2007-01-08 10:06:24 51°11.708 2°45.741 71.1 12.2 71 11.6
2007-01-08 10:07:24 51°11.776 2°46.047 75.4 12.3 69 11.7
2007-01-08 10:08:24 51°11.845 2°46.35 73.1 12.2 71 11.6
2007-01-08 10:09:24 51°11.917 2°46.653 72.6 12.1 70 11.7
2007-01-08 10:10:24 51°11.989 2°46.957 71.2 12.4 67 11.5
2007-01-08 10:11:24 51°12.06 2°47.263 72.9 12.2 68 11.5
2007-01-08 10:12:24 51°12.139 2°47.562 67.4 12.4 61 11.5
2007-01-08 10:13:24 51°12.233 2°47.851 65.2 12.2 59 11.3
2007-01-08 10:14:24 51°12.338 2°48.129 61.4 12.1 56 11.2
2007-01-08 10:15:24 51°12.444 2°48.41 61.9 12.4 62 11.5
2007-01-08 10:16:24 51°12.547 2°48.695 63.2 12.3 63 11.1
2007-01-08 10:17:24 51°12.643 2°48.982 65.8 12.3 61 10.9
2007-01-08 10:18:24 51°12.741 2°49.269 62.8 12.4 62 10.9
2007-01-08 10:19:24 51°12.84 2°49.556 63.8 12.2 64 10.7
2007-01-08 10:20:24 51°12.935 2°49.848 63.6 12.2 64 10.6
2007-01-08 10:21:24 51°13.034 2°50.136 64.5 12.4 58 10.4
2007-01-08 10:22:24 51°13.136 2°50.423 64.7 12.5 59 10.3
2007-01-08 10:23:24 51°13.234 2°50.718 64 12.5 65 10.2
2007-01-08 10:24:24 51°13.336 2°51.007 65 12.6 60 10.1
2007-01-08 10:25:24 51°13.436 2°51.294 65.3 12.4 60 10
2007-01-08 10:26:24 51°13.534 2°51.582 63.7 12.3 63 9.9
2007-01-08 10:27:24 51°13.635 2°51.869 63 12.4 62 9.8
2007-01-08 10:28:24 51°13.731 2°52.159 65.3 12.5 65 9.7
2007-01-08 10:29:24 51°13.83 2°52.448 64.1 12.4 63 9.6
2007-01-08 10:30:24 51°13.925 2°52.741 64.5 12.4 60 9.6
2007-01-08 10:31:24 51°14.019 2°53.034 65 12.5 63 9.2
2007-01-08 10:32:24 51°14.12 2°53.322 64.2 12.4 64 9
2007-01-08 10:33:24 51°14.221 2°53.604 63.8 12.2 60 8.7
2007-01-08 10:34:24 51°14.321 2°53.89 62.6 12.3 62 8.6
2007-01-08 10:35:24 51°14.434 2°54.166 56.1 12.3 50 8.5
2007-01-08 10:36:24 51°14.487 2°54.485 88.7 12.5 96 9.5
2007-01-08 10:37:24 51°14.444 2°54.789 104.8 11.4 105 9.8
2007-01-08 10:38:24 51°14.364 2°55.065 120.4 11.5 120 9.7
2007-01-08 10:39:24 51°14.244 2°55.303 138.1 11.5 138 10.1
2007-01-08 10:40:24 51°14.097 2°55.436 157.7 8.4 156 10
2007-01-08 10:41:24 51°13.98 2°55.521 159.1 7.4 155 10.1
2007-01-08 10:42:24 51°13.87 2°55.6 159.6 7.1 156 9.5
2007-01-08 10:43:24 51°13.773 2°55.69 147.2 6.2 143 9.4
2007-01-08 10:44:24 51°13.707 2°55.787 135.6 4.9 130 11.1
2007-01-08 10:45:24 51°13.658 2°55.887 130.4 4.6 125 9.6
2007-01-08 10:46:24 51°13.624 2°55.979 120.9 3.7 114 9.6
2007-01-08 10:47:24 51°13.608 2°56.056 113.6 2.3 107 9.3
2007-01-08 10:48:24 51°13.6 2°56.091 119 0.5 113 6.4